createdAt,value
2019-03-29T00:00:37.874Z,10.30
2019-03-29T00:03:42.318Z,10.10
2019-03-29T00:06:46.762Z,9.90
2019-03-29T00:09:51.191Z,9.80
2019-03-29T00:12:57.022Z,9.80
2019-03-29T00:16:01.503Z,9.70
2019-03-29T00:19:06.265Z,9.60
2019-03-29T00:22:10.771Z,9.40
2019-03-29T00:25:15.198Z,9.30
2019-03-29T00:28:19.651Z,9.20
2019-03-29T00:31:24.074Z,9.20
2019-03-29T00:34:28.515Z,9.00
2019-03-29T00:37:33.003Z,9.00
2019-03-29T00:40:37.443Z,8.90
2019-03-29T00:43:42.165Z,8.80
2019-03-29T00:46:46.596Z,8.70
2019-03-29T00:49:51.033Z,8.70
2019-03-29T00:52:55.846Z,8.70
2019-03-29T00:56:00.290Z,8.70
2019-03-29T00:59:05.000Z,8.70
2019-03-29T01:02:09.831Z,8.60
2019-03-29T01:05:14.404Z,8.60
2019-03-29T01:08:19.195Z,8.60
2019-03-29T01:11:23.629Z,8.60
2019-03-29T01:14:28.062Z,8.70
2019-03-29T01:17:32.515Z,8.70
2019-03-29T01:20:36.947Z,8.70
2019-03-29T01:23:41.390Z,8.60
2019-03-29T01:26:46.143Z,8.60
2019-03-29T01:29:50.578Z,8.60
2019-03-29T01:32:55.295Z,8.70
2019-03-29T01:36:00.027Z,8.80
2019-03-29T01:39:06.104Z,8.90
2019-03-29T01:42:10.820Z,9.00
2019-03-29T01:45:15.655Z,9.10
2019-03-29T01:48:20.100Z,9.20
2019-03-29T01:51:24.808Z,9.20
2019-03-29T01:54:29.551Z,9.30
2019-03-29T01:57:33.985Z,9.40
2019-03-29T02:00:38.430Z,9.40
2019-03-29T02:03:43.214Z,9.30
2019-03-29T02:06:47.947Z,9.30
2019-03-29T02:09:52.388Z,9.30
2019-03-29T02:12:57.101Z,9.40
2019-03-29T02:16:01.541Z,9.30
2019-03-29T02:19:06.063Z,9.20
2019-03-29T02:22:10.985Z,9.20
2019-03-29T02:25:16.141Z,9.10
2019-03-29T02:28:20.797Z,9.00
2019-03-29T02:31:26.422Z,8.90
2019-03-29T02:34:31.655Z,8.80
2019-03-29T02:37:36.385Z,8.80
2019-03-29T02:40:40.830Z,8.80
2019-03-29T02:43:45.546Z,8.70
2019-03-29T02:46:49.973Z,8.70
2019-03-29T02:49:54.428Z,8.60
2019-03-29T02:52:58.846Z,8.60
2019-03-29T02:56:03.288Z,8.60
2019-03-29T02:59:07.724Z,8.50
2019-03-29T03:02:12.153Z,8.50
2019-03-29T03:05:16.917Z,8.30
2019-03-29T03:08:21.353Z,8.20
2019-03-29T03:11:25.785Z,8.10
2019-03-29T03:14:30.499Z,8.00
2019-03-29T03:17:34.935Z,8.00
2019-03-29T03:20:39.366Z,8.00
2019-03-29T03:23:43.814Z,7.90
2019-03-29T03:26:48.500Z,7.80
2019-03-29T03:29:53.012Z,7.70
2019-03-29T03:32:57.442Z,7.60
2019-03-29T03:36:01.896Z,7.60
2019-03-29T03:39:08.423Z,7.50
2019-03-29T03:42:13.179Z,7.40
2019-03-29T03:45:18.006Z,7.40
2019-03-29T03:48:22.736Z,7.30
2019-03-29T03:51:27.412Z,7.30
2019-03-29T03:54:31.863Z,7.30
2019-03-29T03:57:38.673Z,7.40
2019-03-29T04:00:56.516Z,7.40
2019-03-29T04:04:00.916Z,7.30
2019-03-29T04:07:05.350Z,7.20
2019-03-29T04:10:09.787Z,7.10
2019-03-29T04:13:14.553Z,7.20
2019-03-29T04:16:18.992Z,7.10
2019-03-29T04:19:23.766Z,7.10
2019-03-29T04:22:28.500Z,7.10
2019-03-29T04:25:32.940Z,7.20
2019-03-29T04:28:37.389Z,7.20
2019-03-29T04:31:42.176Z,7.10
2019-03-29T04:34:46.609Z,7.00
2019-03-29T04:37:51.057Z,6.90
2019-03-29T04:40:55.487Z,6.90
2019-03-29T04:43:59.919Z,6.90
2019-03-29T04:47:04.353Z,6.90
2019-03-29T04:50:09.237Z,7.00
2019-03-29T04:53:13.678Z,7.00
2019-03-29T04:56:18.117Z,7.10
2019-03-29T04:59:22.551Z,7.40
2019-03-29T05:02:26.994Z,7.60
2019-03-29T05:05:31.445Z,7.70
2019-03-29T05:08:35.881Z,7.90
2019-03-29T05:11:40.315Z,8.00
2019-03-29T05:14:44.748Z,8.00
2019-03-29T05:17:49.195Z,7.90
2019-03-29T05:20:53.986Z,7.80
2019-03-29T05:23:58.413Z,7.80
2019-03-29T05:27:03.131Z,8.00
2019-03-29T05:30:08.388Z,8.20
2019-03-29T05:33:13.101Z,8.30
2019-03-29T05:36:17.549Z,8.50
2019-03-29T05:39:21.994Z,8.50
2019-03-29T05:42:26.474Z,8.50
2019-03-29T05:45:30.865Z,8.50
2019-03-29T05:48:35.312Z,8.60
2019-03-29T05:51:40.155Z,8.60
2019-03-29T05:54:44.589Z,8.60
2019-03-29T05:57:49.416Z,8.70
2019-03-29T06:00:53.853Z,8.80
2019-03-29T06:03:58.292Z,8.90
2019-03-29T06:07:02.733Z,9.00
2019-03-29T06:10:09.911Z,9.00
2019-03-29T06:13:14.355Z,9.10
2019-03-29T06:16:18.802Z,9.10
2019-03-29T06:19:23.238Z,9.30
2019-03-29T06:22:27.685Z,9.80
2019-03-29T06:25:32.128Z,10.40
2019-03-29T06:28:36.934Z,11.30
2019-03-29T06:31:41.747Z,12.50
2019-03-29T06:34:46.178Z,13.60
2019-03-29T06:37:50.704Z,14.70
2019-03-29T06:41:02.638Z,15.00
2019-03-29T06:44:01.331Z,14.70
2019-03-29T06:47:06.025Z,14.70
2019-03-29T06:50:13.957Z,15.80
2019-03-29T06:53:17.142Z,16.10
2019-03-29T06:56:21.585Z,16.50
2019-03-29T06:59:26.032Z,16.70
2019-03-29T07:02:30.483Z,16.60
2019-03-29T07:05:34.926Z,16.10
2019-03-29T07:08:39.486Z,15.90
2019-03-29T07:11:44.290Z,15.40
2019-03-29T07:14:48.730Z,14.90
2019-03-29T07:17:53.182Z,14.60
2019-03-29T07:20:57.625Z,14.90
2019-03-29T07:24:02.147Z,15.30
2019-03-29T07:27:06.594Z,15.10
2019-03-29T07:30:12.147Z,13.70
2019-03-29T07:33:16.596Z,12.40
2019-03-29T07:36:21.061Z,11.60
2019-03-29T07:39:25.514Z,10.80
2019-03-29T07:42:29.956Z,10.50
2019-03-29T07:45:34.394Z,10.40
2019-03-29T07:48:40.510Z,10.40
2019-03-29T07:51:45.057Z,10.40
2019-03-29T07:54:49.495Z,10.70
2019-03-29T07:57:53.980Z,10.80
2019-03-29T08:00:58.387Z,10.90
2019-03-29T08:04:02.839Z,11.00
2019-03-29T08:07:07.291Z,11.10
2019-03-29T08:10:24.104Z,11.20
2019-03-29T08:13:18.285Z,11.20
2019-03-29T08:16:23.016Z,11.00
2019-03-29T08:19:27.750Z,11.10
2019-03-29T08:22:32.201Z,11.20
2019-03-29T08:25:36.725Z,11.20
2019-03-29T08:28:41.524Z,11.40
2019-03-29T08:31:45.962Z,11.60
2019-03-29T08:34:50.683Z,11.80
2019-03-29T08:37:55.135Z,12.10
2019-03-29T08:40:59.894Z,12.30
2019-03-29T08:44:04.295Z,12.50
2019-03-29T08:47:08.744Z,12.60
2019-03-29T08:50:13.454Z,12.70
2019-03-29T08:53:17.905Z,12.80
2019-03-29T08:56:22.671Z,13.00
2019-03-29T08:59:27.129Z,13.00
2019-03-29T09:02:31.577Z,13.10
2019-03-29T09:05:38.995Z,13.40
2019-03-29T09:08:42.674Z,13.80
2019-03-29T09:11:47.109Z,14.10
2019-03-29T09:14:51.563Z,13.80
2019-03-29T09:17:59.724Z,14.00
2019-03-29T09:21:02.466Z,14.30
2019-03-29T09:24:20.813Z,14.40
2019-03-29T09:27:13.365Z,14.40
2019-03-29T09:30:17.980Z,14.60
2019-03-29T09:33:22.719Z,15.00
2019-03-29T09:36:27.160Z,15.40
2019-03-29T09:39:31.611Z,15.60
2019-03-29T09:42:36.063Z,15.20
2019-03-29T09:45:41.350Z,15.20
2019-03-29T09:48:46.166Z,15.30
2019-03-29T09:51:50.619Z,15.10
2019-03-29T09:54:55.059Z,15.30
2019-03-29T09:57:59.858Z,15.60
2019-03-29T10:01:04.649Z,15.90
2019-03-29T10:04:09.100Z,15.80
2019-03-29T10:07:13.834Z,15.40
2019-03-29T10:10:18.282Z,15.30
2019-03-29T10:13:22.745Z,15.10
2019-03-29T10:16:27.182Z,15.30
2019-03-29T10:19:31.630Z,15.60
2019-03-29T10:22:36.070Z,15.60
2019-03-29T10:25:40.886Z,15.60
2019-03-29T10:28:45.342Z,16.10
2019-03-29T10:31:49.792Z,16.60
2019-03-29T10:34:54.578Z,16.60
2019-03-29T10:37:59.007Z,16.50
2019-03-29T10:41:03.530Z,16.30
2019-03-29T10:44:07.980Z,16.00
2019-03-29T10:47:12.670Z,15.90
2019-03-29T10:50:17.403Z,15.80
2019-03-29T10:53:21.861Z,15.70
2019-03-29T10:56:33.850Z,15.80
2019-03-29T10:59:32.714Z,15.70
2019-03-29T11:02:37.155Z,16.00
2019-03-29T11:05:41.686Z,16.30
2019-03-29T11:08:46.399Z,16.70
2019-03-29T11:11:50.840Z,17.00
2019-03-29T11:14:55.553Z,17.10
2019-03-29T11:17:59.983Z,17.40
2019-03-29T11:21:04.916Z,17.50
2019-03-29T11:24:09.606Z,17.50
2019-03-29T11:27:14.387Z,17.40
2019-03-29T11:30:19.122Z,17.20
2019-03-29T11:33:23.561Z,17.50
2019-03-29T11:36:28.258Z,18.00
2019-03-29T11:39:32.993Z,18.40
2019-03-29T11:42:37.721Z,18.70
2019-03-29T11:45:42.446Z,18.90
2019-03-29T11:48:46.954Z,18.60
2019-03-29T11:51:51.712Z,18.00
2019-03-29T11:54:56.158Z,17.30
2019-03-29T11:58:00.876Z,17.40
2019-03-29T12:01:05.724Z,17.80
2019-03-29T12:04:10.117Z,18.00
2019-03-29T12:07:14.575Z,18.50
2019-03-29T12:10:19.082Z,18.90
2019-03-29T12:13:23.521Z,19.00
2019-03-29T12:16:28.051Z,18.80
2019-03-29T12:19:32.880Z,18.40
2019-03-29T12:22:37.583Z,18.70
2019-03-29T12:25:42.029Z,18.90
2019-03-29T12:28:46.752Z,18.90
2019-03-29T12:31:51.208Z,18.80
2019-03-29T12:34:55.659Z,18.60
2019-03-29T12:38:00.096Z,18.70
2019-03-29T12:41:04.887Z,18.90
2019-03-29T12:44:09.379Z,18.90
2019-03-29T12:47:14.102Z,19.20
2019-03-29T12:50:18.549Z,19.20
2019-03-29T12:53:22.990Z,19.30
2019-03-29T12:56:27.782Z,19.30
2019-03-29T12:59:33.080Z,19.10
2019-03-29T13:02:37.644Z,19.20
2019-03-29T13:05:42.496Z,19.40
2019-03-29T13:08:46.920Z,19.90
2019-03-29T13:11:51.368Z,20.00
2019-03-29T13:14:55.821Z,20.30
2019-03-29T13:18:00.593Z,20.60
2019-03-29T13:21:05.313Z,20.80
2019-03-29T13:24:10.052Z,20.70
2019-03-29T13:27:14.490Z,20.90
2019-03-29T13:30:19.819Z,20.50
2019-03-29T13:33:24.258Z,19.70
2019-03-29T13:36:28.698Z,19.40
2019-03-29T13:39:33.135Z,18.90
2019-03-29T13:42:37.763Z,18.90
2019-03-29T13:45:42.218Z,19.50
2019-03-29T13:48:46.968Z,19.80
2019-03-29T13:51:51.706Z,20.20
2019-03-29T13:54:56.141Z,20.00
2019-03-29T13:58:00.862Z,20.00
2019-03-29T14:01:05.310Z,20.10
2019-03-29T14:04:09.742Z,20.40
2019-03-29T14:07:14.191Z,20.20
2019-03-29T14:10:18.799Z,19.80
2019-03-29T14:13:23.240Z,19.70
2019-03-29T14:16:27.685Z,20.10
2019-03-29T14:19:32.141Z,19.70
2019-03-29T14:22:36.574Z,19.50
2019-03-29T14:25:41.016Z,19.60
2019-03-29T14:28:45.453Z,20.00
2019-03-29T14:31:49.904Z,20.40
2019-03-29T14:34:54.373Z,20.70
2019-03-29T14:37:59.073Z,20.30
2019-03-29T14:41:03.519Z,20.10
2019-03-29T14:44:07.956Z,20.20
2019-03-29T14:47:12.654Z,20.20
2019-03-29T14:50:17.528Z,20.30
2019-03-29T14:53:21.984Z,20.30
2019-03-29T14:56:26.433Z,20.20
2019-03-29T14:59:30.868Z,20.30
2019-03-29T15:02:35.312Z,20.00
2019-03-29T15:05:40.832Z,19.60
2019-03-29T15:08:45.767Z,19.20
2019-03-29T15:11:50.503Z,19.30
2019-03-29T15:15:05.427Z,19.60
2019-03-29T15:18:01.120Z,19.90
2019-03-29T15:21:10.224Z,19.90
2019-03-29T15:24:13.354Z,20.00
2019-03-29T15:27:17.797Z,20.20
2019-03-29T15:30:22.227Z,20.20
2019-03-29T15:33:26.998Z,20.30
2019-03-29T15:36:31.443Z,20.40
2019-03-29T15:39:36.146Z,20.20
2019-03-29T15:42:40.977Z,20.10
2019-03-29T15:45:45.719Z,19.90
2019-03-29T15:48:50.169Z,19.60
2019-03-29T15:51:54.621Z,19.50
2019-03-29T15:54:59.058Z,19.20
2019-03-29T15:58:03.509Z,18.90
2019-03-29T16:01:07.940Z,18.90
2019-03-29T16:04:12.398Z,19.10
2019-03-29T16:07:17.093Z,19.10
2019-03-29T16:10:21.520Z,19.20
2019-03-29T16:13:25.970Z,19.10
2019-03-29T16:16:30.407Z,19.00
2019-03-29T16:19:34.849Z,18.90
2019-03-29T16:22:39.315Z,18.60
2019-03-29T16:25:44.048Z,18.30
2019-03-29T16:28:48.499Z,18.20
2019-03-29T16:31:52.929Z,18.20
2019-03-29T16:34:57.725Z,18.10
2019-03-29T16:38:02.176Z,18.10
2019-03-29T16:41:06.946Z,18.00
2019-03-29T16:44:11.396Z,17.70
2019-03-29T16:47:16.127Z,17.50
2019-03-29T16:50:20.567Z,17.30
2019-03-29T16:53:25.284Z,17.20
2019-03-29T16:56:30.585Z,17.10
2019-03-29T16:59:35.036Z,17.10
2019-03-29T17:02:39.791Z,17.00
2019-03-29T17:05:44.228Z,16.90
2019-03-29T17:08:48.670Z,16.70
2019-03-29T17:11:53.368Z,16.40
2019-03-29T17:14:58.093Z,16.20
2019-03-29T17:18:02.545Z,16.20
2019-03-29T17:21:07.180Z,16.20
2019-03-29T17:24:11.705Z,16.20
2019-03-29T17:27:16.208Z,15.90
2019-03-29T17:30:25.356Z,15.70
2019-03-29T17:33:29.800Z,15.70
2019-03-29T17:36:34.239Z,15.50
2019-03-29T17:39:38.678Z,15.40
2019-03-29T17:42:43.438Z,15.30
2019-03-29T17:45:47.954Z,15.30
2019-03-29T17:48:52.399Z,15.20
2019-03-29T17:51:57.116Z,15.20
2019-03-29T17:55:01.851Z,15.10
2019-03-29T17:58:06.574Z,15.10
2019-03-29T18:01:11.083Z,15.00
2019-03-29T18:04:15.733Z,14.90
2019-03-29T18:07:20.168Z,14.70
2019-03-29T18:10:24.620Z,14.50
2019-03-29T18:13:29.047Z,14.20
2019-03-29T18:16:33.496Z,14.10
2019-03-29T18:19:38.261Z,13.80
2019-03-29T18:22:42.702Z,13.60
2019-03-29T18:25:47.185Z,13.50
2019-03-29T18:28:51.597Z,13.30
2019-03-29T18:31:56.111Z,13.30
2019-03-29T18:35:00.889Z,13.20
2019-03-29T18:38:05.728Z,13.00
2019-03-29T18:41:10.475Z,13.00
2019-03-29T18:44:14.925Z,12.80
2019-03-29T18:47:19.363Z,12.60
2019-03-29T18:50:24.055Z,12.60
2019-03-29T18:53:28.666Z,12.50
2019-03-29T18:56:33.397Z,12.50
2019-03-29T18:59:37.845Z,12.40
2019-03-29T19:02:42.400Z,12.40
2019-03-29T19:05:46.847Z,12.40
2019-03-29T19:08:51.467Z,12.30
2019-03-29T19:11:55.893Z,12.30
2019-03-29T19:15:00.689Z,12.30
2019-03-29T19:18:05.125Z,12.30
2019-03-29T19:21:10.327Z,12.10
2019-03-29T19:24:16.073Z,12.10
2019-03-29T19:27:20.806Z,12.00
2019-03-29T19:30:25.857Z,12.00
2019-03-29T19:33:30.295Z,11.80
2019-03-29T19:36:34.739Z,11.70
2019-03-29T19:39:39.199Z,11.70
2019-03-29T19:42:43.643Z,11.60
2019-03-29T19:45:48.092Z,11.50
2019-03-29T19:48:52.900Z,11.50
2019-03-29T19:51:57.717Z,11.60
2019-03-29T19:55:02.343Z,11.60
2019-03-29T19:58:06.823Z,11.50
2019-03-29T20:01:11.508Z,11.40
2019-03-29T20:04:15.943Z,11.30
2019-03-29T20:07:20.553Z,11.10
2019-03-29T20:10:25.687Z,10.90
2019-03-29T20:13:30.126Z,10.80
2019-03-29T20:16:34.851Z,10.70
2019-03-29T20:19:39.300Z,10.60
2019-03-29T20:22:43.736Z,10.60
2019-03-29T20:25:48.413Z,10.60
2019-03-29T20:28:52.925Z,10.60
2019-03-29T20:31:57.406Z,10.50
2019-03-29T20:35:02.727Z,10.30
2019-03-29T20:38:07.181Z,10.20
2019-03-29T20:41:11.889Z,10.10
2019-03-29T20:44:16.611Z,10.10
2019-03-29T20:47:21.064Z,10.00
2019-03-29T20:50:25.523Z,10.00
2019-03-29T20:53:29.952Z,10.00
2019-03-29T20:56:34.423Z,10.00
2019-03-29T20:59:38.865Z,9.90
2019-03-29T21:02:43.665Z,9.80
2019-03-29T21:05:48.100Z,9.80
2019-03-29T21:08:52.818Z,9.70
2019-03-29T21:11:57.260Z,9.70
2019-03-29T21:15:01.972Z,9.60
2019-03-29T21:18:06.408Z,9.50
2019-03-29T21:21:11.128Z,9.50
2019-03-29T21:24:15.566Z,9.40
2019-03-29T21:27:20.277Z,9.40
2019-03-29T21:30:24.780Z,9.30
2019-03-29T21:33:29.227Z,9.20
2019-03-29T21:36:33.964Z,9.20
2019-03-29T21:39:38.408Z,9.10
2019-03-29T21:42:43.218Z,9.10
2019-03-29T21:45:47.665Z,9.10
2019-03-29T21:48:52.098Z,9.20
2019-03-29T21:51:56.542Z,9.20
2019-03-29T21:55:00.982Z,9.20
2019-03-29T21:58:05.746Z,9.10
2019-03-29T22:01:10.194Z,9.00
2019-03-29T22:04:14.905Z,9.00
2019-03-29T22:07:19.360Z,8.90
2019-03-29T22:10:23.791Z,8.80
2019-03-29T22:13:28.246Z,8.70
2019-03-29T22:16:32.699Z,8.60
2019-03-29T22:19:37.136Z,8.60
2019-03-29T22:22:41.622Z,8.60
2019-03-29T22:25:46.060Z,8.50
2019-03-29T22:28:50.497Z,8.50
2019-03-29T22:31:54.934Z,8.40
2019-03-29T22:34:59.368Z,8.40
2019-03-29T22:38:04.170Z,8.40
2019-03-29T22:41:08.907Z,8.30
2019-03-29T22:44:13.346Z,8.20
2019-03-29T22:47:17.782Z,8.10
2019-03-29T22:50:22.217Z,8.10
2019-03-29T22:53:27.487Z,8.10
2019-03-29T22:56:32.267Z,8.10
2019-03-29T22:59:36.716Z,8.00
2019-03-29T23:02:41.297Z,8.00
2019-03-29T23:05:45.737Z,8.00
2019-03-29T23:08:50.176Z,8.00
2019-03-29T23:11:54.882Z,7.90
2019-03-29T23:14:59.619Z,7.90
2019-03-29T23:18:04.228Z,7.90
2019-03-29T23:21:08.671Z,7.90
2019-03-29T23:24:13.396Z,8.00
2019-03-29T23:27:17.833Z,7.90
2019-03-29T23:30:22.830Z,7.90
2019-03-29T23:33:27.343Z,7.90
2019-03-29T23:36:31.780Z,7.90
2019-03-29T23:39:36.535Z,7.90
2019-03-29T23:42:40.986Z,7.80
2019-03-29T23:45:45.793Z,7.80
2019-03-29T23:48:50.242Z,7.70
2019-03-29T23:51:54.958Z,7.70
2019-03-29T23:54:59.677Z,7.60
2019-03-29T23:58:04.126Z,7.70
